createdAt,value
2018-11-07T00:01:32.892Z,21.40
2018-11-07T00:04:01.158Z,21.40
2018-11-07T00:06:29.522Z,21.40
2018-11-07T00:08:57.648Z,21.40
2018-11-07T00:11:25.758Z,21.40
2018-11-07T00:13:54.821Z,21.40
2018-11-07T00:16:22.990Z,21.40
2018-11-07T00:18:51.099Z,21.40
2018-11-07T00:21:19.221Z,21.40
2018-11-07T00:23:47.325Z,21.40
2018-11-07T00:26:15.722Z,21.40
2018-11-07T00:28:43.926Z,21.40
2018-11-07T00:31:12.037Z,21.40
2018-11-07T00:33:40.186Z,21.40
2018-11-07T00:36:08.286Z,21.40
2018-11-07T00:38:36.535Z,21.40
2018-11-07T00:41:04.900Z,21.40
2018-11-07T00:43:33.122Z,21.30
2018-11-07T00:46:01.289Z,21.30
2018-11-07T00:48:29.416Z,21.30
2018-11-07T00:50:57.529Z,21.30
2018-11-07T00:53:25.638Z,21.30
2018-11-07T00:55:53.768Z,21.30
2018-11-07T00:58:21.981Z,21.30
2018-11-07T01:00:50.135Z,21.30
2018-11-07T01:03:18.855Z,21.30
2018-11-07T01:05:46.949Z,21.30
2018-11-07T01:08:15.088Z,21.30
2018-11-07T01:10:43.320Z,21.30
2018-11-07T01:13:11.562Z,21.30
2018-11-07T01:15:39.668Z,21.30
2018-11-07T01:18:07.789Z,21.30
2018-11-07T01:20:35.945Z,21.30
2018-11-07T01:23:04.041Z,21.30
2018-11-07T01:25:32.194Z,21.30
2018-11-07T01:28:00.411Z,21.30
2018-11-07T01:30:28.777Z,21.30
2018-11-07T01:32:56.879Z,21.30
2018-11-07T01:35:24.973Z,21.30
2018-11-07T01:37:53.108Z,21.30
2018-11-07T01:40:21.356Z,21.30
2018-11-07T01:42:49.620Z,21.30
2018-11-07T01:45:17.736Z,21.30
2018-11-07T01:47:45.862Z,21.30
2018-11-07T01:50:14.308Z,21.30
2018-11-07T01:52:42.415Z,21.30
2018-11-07T01:55:11.056Z,21.30
2018-11-07T01:57:39.393Z,21.30
2018-11-07T02:00:09.541Z,21.30
2018-11-07T02:02:37.689Z,21.30
2018-11-07T02:05:06.355Z,21.20
2018-11-07T02:07:34.441Z,21.30
2018-11-07T02:10:02.545Z,21.30
2018-11-07T02:12:30.734Z,21.20
2018-11-07T02:14:58.911Z,21.30
2018-11-07T02:17:27.044Z,21.30
2018-11-07T02:19:55.237Z,21.20
2018-11-07T02:22:23.422Z,21.20
2018-11-07T02:24:51.593Z,21.20
2018-11-07T02:27:19.729Z,21.20
2018-11-07T02:29:47.821Z,21.20
2018-11-07T02:32:16.096Z,21.20
2018-11-07T02:34:44.176Z,21.20
2018-11-07T02:37:12.390Z,21.20
2018-11-07T02:39:40.679Z,21.20
2018-11-07T02:42:08.881Z,21.20
2018-11-07T02:44:37.007Z,21.20
2018-11-07T02:47:05.132Z,21.20
2018-11-07T02:49:33.355Z,21.20
2018-11-07T02:52:01.466Z,21.20
2018-11-07T02:54:29.570Z,21.20
2018-11-07T02:56:57.666Z,21.20
2018-11-07T02:59:25.761Z,21.10
2018-11-07T03:01:53.900Z,21.20
2018-11-07T03:04:22.025Z,21.20
2018-11-07T03:06:50.204Z,21.20
2018-11-07T03:09:18.440Z,21.10
2018-11-07T03:11:46.611Z,21.10
2018-11-07T03:14:14.768Z,21.10
2018-11-07T03:16:43.026Z,21.10
2018-11-07T03:19:11.259Z,21.10
2018-11-07T03:21:39.465Z,21.10
2018-11-07T03:24:07.624Z,21.10
2018-11-07T03:26:35.776Z,21.10
2018-11-07T03:29:03.876Z,21.10
2018-11-07T03:31:32.549Z,21.10
2018-11-07T03:34:00.694Z,21.10
2018-11-07T03:36:28.874Z,21.10
2018-11-07T03:38:56.989Z,21.10
2018-11-07T03:41:25.221Z,21.10
2018-11-07T03:43:53.452Z,21.10
2018-11-07T03:46:21.622Z,21.10
2018-11-07T03:48:50.562Z,21.10
2018-11-07T03:51:18.669Z,21.10
2018-11-07T03:53:46.769Z,21.10
2018-11-07T03:56:14.932Z,21.10
2018-11-07T03:58:43.104Z,21.00
2018-11-07T04:01:11.357Z,21.00
2018-11-07T04:03:39.864Z,21.10
2018-11-07T04:06:08.065Z,21.00
2018-11-07T04:08:37.359Z,21.00
2018-11-07T04:11:05.890Z,21.00
2018-11-07T04:13:34.017Z,21.00
2018-11-07T04:16:02.481Z,21.00
2018-11-07T04:18:30.761Z,21.10
2018-11-07T04:20:59.009Z,21.00
2018-11-07T04:23:27.257Z,21.00
2018-11-07T04:25:55.445Z,21.00
2018-11-07T04:28:23.603Z,21.00
2018-11-07T04:30:51.721Z,21.00
2018-11-07T04:33:20.168Z,21.00
2018-11-07T04:35:48.374Z,21.10
2018-11-07T04:38:16.565Z,21.00
2018-11-07T04:40:44.718Z,21.00
2018-11-07T04:43:12.873Z,21.00
2018-11-07T04:45:41.249Z,21.00
2018-11-07T04:48:09.453Z,21.00
2018-11-07T04:50:37.622Z,21.00
2018-11-07T04:53:05.766Z,21.00
2018-11-07T04:55:33.966Z,21.00
2018-11-07T04:58:02.151Z,21.00
2018-11-07T05:00:30.441Z,21.00
2018-11-07T05:02:58.581Z,21.00
2018-11-07T05:05:26.758Z,21.00
2018-11-07T05:07:54.852Z,21.00
2018-11-07T05:10:23.029Z,21.00
2018-11-07T05:12:51.235Z,21.00
2018-11-07T05:15:19.348Z,21.00
2018-11-07T05:17:47.508Z,21.00
2018-11-07T05:20:15.619Z,20.90
2018-11-07T05:22:43.717Z,20.90
2018-11-07T05:25:12.075Z,20.90
2018-11-07T05:27:40.844Z,20.90
2018-11-07T05:30:09.635Z,20.90
2018-11-07T05:32:38.017Z,20.90
2018-11-07T05:35:06.764Z,20.90
2018-11-07T05:37:34.957Z,20.90
2018-11-07T05:40:03.137Z,20.90
2018-11-07T05:42:31.321Z,20.90
2018-11-07T05:44:59.493Z,20.90
2018-11-07T05:47:27.621Z,20.90
2018-11-07T05:49:55.749Z,20.90
2018-11-07T05:52:24.000Z,20.90
2018-11-07T05:54:52.232Z,20.90
2018-11-07T05:57:20.369Z,20.90
2018-11-07T05:59:48.513Z,20.90
2018-11-07T06:02:16.696Z,20.90
2018-11-07T06:04:44.895Z,20.90
2018-11-07T06:07:13.336Z,20.90
2018-11-07T06:09:41.806Z,20.90
2018-11-07T06:12:10.106Z,20.90
2018-11-07T06:14:38.230Z,20.90
2018-11-07T06:17:06.376Z,20.90
2018-11-07T06:19:34.553Z,20.90
2018-11-07T06:22:02.679Z,20.90
2018-11-07T06:24:31.597Z,20.90
2018-11-07T06:26:59.692Z,20.90
2018-11-07T06:29:27.806Z,20.90
2018-11-07T06:31:55.937Z,20.90
2018-11-07T06:34:25.055Z,20.90
2018-11-07T06:36:53.308Z,20.90
2018-11-07T06:39:21.428Z,20.90
2018-11-07T06:41:49.538Z,20.90
2018-11-07T06:44:17.893Z,20.90
2018-11-07T06:46:46.444Z,20.90
2018-11-07T06:49:14.605Z,20.90
2018-11-07T06:51:42.867Z,20.90
2018-11-07T06:54:11.270Z,20.90
2018-11-07T06:56:39.392Z,20.90
2018-11-07T06:59:07.505Z,20.90
2018-11-07T07:01:35.626Z,20.80
2018-11-07T07:04:03.822Z,20.80
2018-11-07T07:06:32.144Z,20.80
2018-11-07T07:09:00.352Z,20.80
2018-11-07T07:11:28.524Z,20.80
2018-11-07T07:13:56.827Z,20.80
2018-11-07T07:16:24.937Z,20.80
2018-11-07T07:18:53.186Z,20.80
2018-11-07T07:21:21.373Z,20.80
2018-11-07T07:23:49.521Z,20.80
2018-11-07T07:26:17.665Z,20.80
2018-11-07T07:28:45.875Z,20.80
2018-11-07T07:31:14.679Z,20.80
2018-11-07T07:33:43.297Z,20.80
2018-11-07T07:36:11.408Z,20.80
2018-11-07T07:38:40.947Z,20.80
2018-11-07T07:41:09.112Z,20.80
2018-11-07T07:43:38.368Z,20.80
2018-11-07T07:46:06.497Z,20.80
2018-11-07T07:48:34.629Z,20.80
2018-11-07T07:51:02.788Z,20.80
2018-11-07T07:53:30.961Z,20.80
2018-11-07T07:55:59.081Z,20.80
2018-11-07T07:58:27.202Z,20.80
2018-11-07T08:00:55.524Z,20.80
2018-11-07T08:03:23.805Z,20.80
2018-11-07T08:05:51.930Z,20.80
2018-11-07T08:08:20.061Z,20.80
2018-11-07T08:10:48.189Z,20.80
2018-11-07T08:13:16.289Z,20.80
2018-11-07T08:15:44.521Z,20.80
2018-11-07T08:18:12.716Z,20.80
2018-11-07T08:20:40.957Z,20.80
2018-11-07T08:23:09.205Z,20.80
2018-11-07T08:25:37.573Z,20.80
2018-11-07T08:28:06.228Z,20.90
2018-11-07T08:30:34.470Z,20.90
2018-11-07T08:33:02.578Z,20.80
2018-11-07T08:35:30.714Z,20.80
2018-11-07T08:37:58.958Z,20.80
2018-11-07T08:40:27.083Z,20.80
2018-11-07T08:42:55.237Z,20.80
2018-11-07T08:45:23.383Z,20.80
2018-11-07T08:47:51.605Z,20.80
2018-11-07T08:50:21.361Z,20.80
2018-11-07T08:52:50.040Z,20.80
2018-11-07T08:55:19.542Z,20.80
2018-11-07T08:57:47.701Z,20.80
2018-11-07T09:00:18.619Z,20.80
2018-11-07T09:02:46.995Z,20.80
2018-11-07T09:05:15.926Z,20.80
2018-11-07T09:07:44.793Z,20.80
2018-11-07T09:10:14.182Z,20.80
2018-11-07T09:12:42.293Z,20.80
2018-11-07T09:15:13.305Z,20.80
2018-11-07T09:17:41.705Z,20.90
2018-11-07T09:20:12.830Z,20.80
2018-11-07T09:22:41.004Z,20.90
2018-11-07T09:25:09.213Z,20.90
2018-11-07T09:27:37.586Z,20.90
2018-11-07T09:30:07.921Z,20.90
2018-11-07T09:32:36.096Z,20.90
2018-11-07T09:35:05.093Z,20.90
2018-11-07T09:37:33.521Z,20.90
2018-11-07T09:40:01.794Z,20.90
2018-11-07T09:42:30.133Z,20.90
2018-11-07T09:44:58.277Z,21.00
2018-11-07T09:47:26.476Z,21.00
2018-11-07T09:49:54.897Z,21.00
2018-11-07T09:52:23.290Z,21.00
2018-11-07T09:54:51.406Z,21.00
2018-11-07T09:57:19.554Z,21.00
2018-11-07T09:59:47.709Z,21.00
2018-11-07T10:02:15.902Z,21.00
2018-11-07T10:04:44.124Z,21.10
2018-11-07T10:07:13.576Z,21.10
2018-11-07T10:09:42.428Z,21.10
2018-11-07T10:12:10.590Z,21.10
2018-11-07T10:14:38.742Z,21.10
2018-11-07T10:17:06.893Z,21.20
2018-11-07T10:19:35.061Z,21.20
2018-11-07T10:22:03.525Z,21.20
2018-11-07T10:24:31.856Z,21.30
2018-11-07T10:27:00.251Z,21.40
2018-11-07T10:29:31.287Z,21.40
2018-11-07T10:31:59.666Z,21.50
2018-11-07T10:34:27.873Z,21.60
2018-11-07T10:36:56.097Z,21.60
2018-11-07T10:39:24.346Z,21.80
2018-11-07T10:41:52.462Z,21.80
2018-11-07T10:44:20.695Z,22.00
2018-11-07T10:46:48.810Z,22.00
2018-11-07T10:49:16.969Z,22.10
2018-11-07T10:51:45.379Z,22.20
2018-11-07T10:54:13.545Z,22.20
2018-11-07T10:56:41.805Z,22.20
2018-11-07T10:59:10.590Z,22.30
2018-11-07T11:01:44.337Z,22.30
2018-11-07T11:04:12.565Z,22.30
2018-11-07T11:06:41.162Z,22.40
2018-11-07T11:09:09.932Z,22.40
2018-11-07T11:11:38.137Z,22.40
2018-11-07T11:14:06.587Z,22.40
2018-11-07T11:16:35.489Z,22.40
2018-11-07T11:19:03.618Z,22.30
2018-11-07T11:21:32.129Z,22.30
2018-11-07T11:24:01.094Z,22.30
2018-11-07T11:26:29.317Z,22.30
2018-11-07T11:28:57.494Z,22.30
2018-11-07T11:31:25.664Z,22.20
2018-11-07T11:33:53.872Z,22.20
2018-11-07T11:36:22.318Z,22.20
2018-11-07T11:38:50.773Z,22.20
2018-11-07T11:41:19.080Z,22.20
2018-11-07T11:43:47.235Z,22.20
2018-11-07T11:46:15.426Z,22.10
2018-11-07T11:48:43.578Z,22.20
2018-11-07T11:51:11.799Z,22.10
2018-11-07T11:53:40.326Z,22.10
2018-11-07T11:56:08.534Z,22.20
2018-11-07T11:58:36.718Z,22.10
2018-11-07T12:01:05.286Z,22.10
2018-11-07T12:03:33.458Z,22.10
2018-11-07T12:06:01.667Z,22.10
2018-11-07T12:08:30.283Z,22.10
2018-11-07T12:10:58.601Z,22.00
2018-11-07T12:13:26.977Z,22.10
2018-11-07T12:15:55.031Z,22.00
2018-11-07T12:18:23.233Z,22.00
2018-11-07T12:20:51.720Z,22.00
2018-11-07T12:23:19.876Z,22.10
2018-11-07T12:25:48.541Z,22.10
2018-11-07T12:28:16.753Z,22.10
2018-11-07T12:30:45.115Z,22.10
2018-11-07T12:33:13.297Z,22.10
2018-11-07T12:35:42.089Z,22.20
2018-11-07T12:38:10.331Z,22.30
2018-11-07T12:40:38.822Z,22.40
2018-11-07T12:43:07.021Z,22.70
2018-11-07T12:45:35.907Z,23.00
2018-11-07T12:48:04.178Z,23.20
2018-11-07T12:50:32.812Z,23.40
2018-11-07T12:53:00.909Z,23.80
2018-11-07T12:55:29.081Z,24.10
2018-11-07T12:57:57.304Z,24.10
2018-11-07T13:00:26.650Z,24.10
2018-11-07T13:02:54.873Z,24.30
2018-11-07T13:05:24.006Z,24.50
2018-11-07T13:07:52.817Z,24.40
2018-11-07T13:10:21.994Z,24.50
2018-11-07T13:12:51.042Z,24.50
2018-11-07T13:15:19.429Z,24.50
2018-11-07T13:17:49.725Z,24.50
2018-11-07T13:20:19.225Z,24.40
2018-11-07T13:22:48.701Z,24.40
2018-11-07T13:25:17.423Z,24.30
2018-11-07T13:27:45.665Z,24.30
2018-11-07T13:30:17.437Z,24.20
2018-11-07T13:32:45.704Z,24.10
2018-11-07T13:35:14.808Z,24.10
2018-11-07T13:37:44.317Z,24.00
2018-11-07T13:40:15.675Z,23.90
2018-11-07T13:42:44.277Z,23.80
2018-11-07T13:45:15.411Z,23.80
2018-11-07T13:47:45.417Z,23.80
2018-11-07T13:50:14.218Z,23.80
2018-11-07T13:52:42.738Z,23.70
2018-11-07T13:55:11.664Z,23.70
2018-11-07T13:57:40.551Z,23.60
2018-11-07T14:00:13.269Z,23.50
2018-11-07T14:02:41.481Z,23.50
2018-11-07T14:05:10.585Z,23.50
2018-11-07T14:07:39.836Z,23.40
2018-11-07T14:10:10.026Z,23.40
2018-11-07T14:12:38.551Z,23.30
2018-11-07T14:15:08.634Z,23.30
2018-11-07T14:17:36.832Z,23.30
2018-11-07T14:20:05.701Z,23.20
2018-11-07T14:22:33.891Z,23.20
2018-11-07T14:25:02.917Z,23.20
2018-11-07T14:27:31.196Z,23.20
2018-11-07T14:30:00.638Z,23.20
2018-11-07T14:32:29.355Z,23.20
2018-11-07T14:34:57.631Z,23.20
2018-11-07T14:37:25.939Z,23.20
2018-11-07T14:39:54.221Z,23.20
2018-11-07T14:42:22.387Z,23.50
2018-11-07T14:44:50.607Z,23.30
2018-11-07T14:47:18.915Z,23.30
2018-11-07T14:49:47.591Z,23.20
2018-11-07T14:52:16.095Z,23.20
2018-11-07T14:54:44.247Z,23.20
2018-11-07T14:57:12.497Z,23.10
2018-11-07T14:59:40.741Z,23.10
2018-11-07T15:02:09.477Z,23.10
2018-11-07T15:04:38.190Z,23.00
2018-11-07T15:07:06.330Z,23.00
2018-11-07T15:09:34.493Z,23.00
2018-11-07T15:12:03.197Z,23.00
2018-11-07T15:14:31.370Z,23.00
2018-11-07T15:16:59.551Z,23.00
2018-11-07T15:19:27.906Z,23.00
2018-11-07T15:21:55.986Z,23.00
2018-11-07T15:24:24.439Z,23.00
2018-11-07T15:26:53.118Z,23.00
2018-11-07T15:29:21.706Z,23.00
2018-11-07T15:31:49.963Z,22.90
2018-11-07T15:34:18.278Z,23.00
2018-11-07T15:36:46.461Z,23.00
2018-11-07T15:39:14.816Z,22.90
2018-11-07T15:41:43.361Z,23.10
2018-11-07T15:44:11.557Z,23.00
2018-11-07T15:46:40.015Z,23.00
2018-11-07T15:49:08.672Z,23.00
2018-11-07T15:51:38.941Z,23.00
2018-11-07T15:54:08.245Z,23.00
2018-11-07T15:56:37.107Z,23.20
2018-11-07T15:59:06.169Z,23.10
2018-11-07T16:01:34.401Z,23.00
2018-11-07T16:04:03.030Z,23.00
2018-11-07T16:06:31.450Z,22.90
2018-11-07T16:09:00.054Z,22.90
2018-11-07T16:11:30.067Z,22.90
2018-11-07T16:13:58.386Z,22.90
2018-11-07T16:16:27.446Z,22.90
2018-11-07T16:18:55.787Z,22.80
2018-11-07T16:21:28.168Z,22.80
2018-11-07T16:23:56.387Z,22.90
2018-11-07T16:26:28.373Z,22.90
2018-11-07T16:28:56.654Z,22.90
2018-11-07T16:31:24.825Z,22.90
2018-11-07T16:33:53.486Z,22.90
2018-11-07T16:36:21.669Z,23.00
2018-11-07T16:38:50.452Z,22.90
2018-11-07T16:41:18.871Z,22.90
2018-11-07T16:43:47.795Z,23.00
2018-11-07T16:46:17.592Z,22.90
2018-11-07T16:48:46.004Z,22.90
2018-11-07T16:51:14.136Z,22.90
2018-11-07T16:53:42.307Z,22.90
2018-11-07T16:56:10.728Z,22.90
2018-11-07T16:58:38.979Z,22.90
2018-11-07T17:01:07.402Z,22.80
2018-11-07T17:03:35.816Z,22.90
2018-11-07T17:06:04.662Z,22.80
2018-11-07T17:08:34.188Z,22.80
2018-11-07T17:11:02.317Z,22.80
2018-11-07T17:13:31.586Z,22.90
2018-11-07T17:16:00.434Z,22.80
2018-11-07T17:18:29.409Z,22.80
2018-11-07T17:20:57.668Z,22.80
2018-11-07T17:23:25.847Z,22.80
2018-11-07T17:25:54.074Z,22.80
2018-11-07T17:28:23.360Z,22.80
2018-11-07T17:30:51.559Z,22.80
2018-11-07T17:33:19.906Z,22.80
2018-11-07T17:35:48.545Z,22.80
2018-11-07T17:38:16.717Z,22.80
2018-11-07T17:40:45.642Z,22.80
2018-11-07T17:43:13.769Z,22.80
2018-11-07T17:45:42.044Z,22.80
2018-11-07T17:48:10.281Z,22.80
2018-11-07T17:50:38.608Z,22.80
2018-11-07T17:53:06.878Z,22.80
2018-11-07T17:55:35.203Z,22.90
2018-11-07T17:58:03.595Z,22.90
2018-11-07T18:00:35.196Z,22.90
2018-11-07T18:03:03.456Z,23.00
2018-11-07T18:05:31.590Z,23.00
2018-11-07T18:07:59.851Z,23.10
2018-11-07T18:10:28.080Z,23.10
2018-11-07T18:12:57.121Z,23.20
2018-11-07T18:15:25.384Z,23.20
2018-11-07T18:17:53.551Z,23.30
2018-11-07T18:20:21.878Z,23.30
2018-11-07T18:22:50.062Z,23.30
2018-11-07T18:25:18.505Z,23.30
2018-11-07T18:27:46.713Z,23.30
2018-11-07T18:30:16.024Z,23.30
2018-11-07T18:32:44.872Z,23.30
2018-11-07T18:35:14.600Z,23.30
2018-11-07T18:37:43.424Z,23.20
2018-11-07T18:40:13.862Z,23.20
2018-11-07T18:42:42.267Z,23.00
2018-11-07T18:45:11.540Z,23.00
2018-11-07T18:47:40.842Z,22.90
2018-11-07T18:50:10.283Z,22.90
2018-11-07T18:52:38.501Z,22.80
2018-11-07T18:55:08.151Z,22.80
2018-11-07T18:57:37.373Z,22.70
2018-11-07T19:00:08.015Z,22.70
2018-11-07T19:02:36.664Z,22.70
2018-11-07T19:05:05.966Z,22.70
2018-11-07T19:07:34.852Z,22.60
2018-11-07T19:10:03.782Z,22.60
2018-11-07T19:12:31.908Z,22.50
2018-11-07T19:15:00.103Z,22.50
2018-11-07T19:17:28.224Z,22.50
2018-11-07T19:19:58.092Z,22.50
2018-11-07T19:22:26.226Z,22.50
2018-11-07T19:24:54.414Z,22.40
2018-11-07T19:27:22.627Z,22.40
2018-11-07T19:29:50.740Z,22.40
2018-11-07T19:32:19.590Z,22.40
2018-11-07T19:34:47.874Z,22.40
2018-11-07T19:37:16.333Z,22.40
2018-11-07T19:39:44.560Z,22.40
2018-11-07T19:42:12.777Z,22.40
2018-11-07T19:44:40.941Z,22.40
2018-11-07T19:47:09.061Z,22.30
2018-11-07T19:49:37.287Z,22.30
2018-11-07T19:52:05.541Z,22.30
2018-11-07T19:54:34.076Z,22.30
2018-11-07T19:57:03.015Z,22.30
2018-11-07T19:59:31.226Z,22.30
2018-11-07T20:01:59.537Z,22.20
2018-11-07T20:04:29.497Z,22.20
2018-11-07T20:06:58.380Z,22.20
2018-11-07T20:09:28.764Z,22.20
2018-11-07T20:11:59.923Z,22.10
2018-11-07T20:14:28.953Z,22.10
2018-11-07T20:16:57.230Z,22.20
2018-11-07T20:19:25.823Z,22.20
2018-11-07T20:21:54.796Z,22.10
2018-11-07T20:24:26.662Z,22.10
2018-11-07T20:26:57.733Z,22.10
2018-11-07T20:29:27.041Z,22.10
2018-11-07T20:31:55.792Z,22.10
2018-11-07T20:34:24.175Z,22.00
2018-11-07T20:36:52.554Z,22.10
2018-11-07T20:39:21.789Z,22.00
2018-11-07T20:41:50.118Z,22.00
2018-11-07T20:44:18.196Z,22.00
2018-11-07T20:46:46.336Z,22.00
2018-11-07T20:49:14.517Z,22.00
2018-11-07T20:51:42.812Z,22.00
2018-11-07T20:54:11.068Z,22.00
2018-11-07T20:56:39.262Z,22.00
2018-11-07T20:59:07.489Z,22.00
2018-11-07T21:01:35.679Z,22.00
2018-11-07T21:04:03.883Z,22.00
2018-11-07T21:06:32.077Z,22.00
2018-11-07T21:09:00.693Z,21.90
2018-11-07T21:11:28.937Z,21.90
2018-11-07T21:13:57.105Z,21.90
2018-11-07T21:16:25.297Z,21.90
2018-11-07T21:18:53.472Z,21.90
2018-11-07T21:21:22.183Z,21.90
2018-11-07T21:23:50.357Z,21.90
2018-11-07T21:26:18.465Z,21.90
2018-11-07T21:28:47.349Z,21.90
2018-11-07T21:31:15.709Z,21.90
2018-11-07T21:33:45.248Z,21.90
2018-11-07T21:36:13.385Z,21.90
2018-11-07T21:38:41.553Z,21.90
2018-11-07T21:41:09.870Z,21.90
2018-11-07T21:43:38.014Z,21.80
2018-11-07T21:46:06.518Z,21.80
2018-11-07T21:48:34.692Z,21.80
2018-11-07T21:51:02.813Z,21.80
2018-11-07T21:53:31.131Z,21.80
2018-11-07T21:55:59.843Z,21.80
2018-11-07T21:58:28.013Z,21.80
2018-11-07T22:00:56.153Z,21.80
2018-11-07T22:03:24.328Z,21.80
2018-11-07T22:05:52.438Z,21.80
2018-11-07T22:08:20.556Z,21.80
2018-11-07T22:10:48.757Z,21.80
2018-11-07T22:15:51.410Z,21.80
2018-11-07T22:18:19.554Z,21.70
2018-11-07T22:20:47.757Z,21.70
2018-11-07T22:23:15.888Z,21.70
2018-11-07T22:25:43.997Z,21.70
2018-11-07T22:28:12.189Z,21.70
2018-11-07T22:30:40.328Z,21.70
2018-11-07T22:33:08.580Z,21.70
2018-11-07T22:35:36.817Z,21.70
2018-11-07T22:38:04.957Z,21.70
2018-11-07T22:40:33.164Z,21.70
2018-11-07T22:43:01.282Z,21.70
2018-11-07T22:45:29.614Z,21.60
2018-11-07T22:47:57.720Z,21.60
2018-11-07T22:50:25.858Z,21.60
2018-11-07T22:52:54.068Z,21.60
2018-11-07T22:55:22.411Z,21.60
2018-11-07T22:57:50.607Z,21.60
2018-11-07T23:00:24.330Z,21.60
2018-11-07T23:02:53.663Z,21.60
2018-11-07T23:05:21.866Z,21.60
2018-11-07T23:07:50.658Z,21.60
2018-11-07T23:10:18.746Z,21.60
2018-11-07T23:12:47.071Z,21.60
2018-11-07T23:15:49.693Z,21.60
2018-11-07T23:18:19.280Z,21.60
2018-11-07T23:20:47.655Z,21.60
2018-11-07T23:23:16.213Z,21.60
2018-11-07T23:25:44.897Z,21.60
2018-11-07T23:28:13.180Z,21.50
2018-11-07T23:30:41.402Z,21.50
2018-11-07T23:33:09.516Z,21.50
2018-11-07T23:35:37.641Z,21.50
2018-11-07T23:38:06.055Z,21.50
2018-11-07T23:40:34.249Z,21.50
2018-11-07T23:43:02.373Z,21.50
2018-11-07T23:45:30.550Z,21.50
2018-11-07T23:47:58.743Z,21.50
2018-11-07T23:50:26.898Z,21.50
2018-11-07T23:52:55.069Z,21.50
2018-11-07T23:55:23.809Z,21.50
2018-11-07T23:57:52.746Z,21.50
